Portada
METAR-TAF:

METAR-TAF

Aeropuertos :

Pionyang, Corea del Norte

Aeropuerto Internacional de Sunan

latitud: 39-02N, longitud: 125-47E, altitud: 36 m

METAR: falta

Hora: 10:01 (01:31 UTC)

Pronóstico

El informe se hizo hace 4 horas y 31 minutos, a las 21:00 UTC
Pronóstico válido del 24 a las 00 UTC al 24 a las 24 UTC
Viento 14 kt del noroeste
Visibilidad 10 km o más
sin nubes por debajo de 1500 m y sin presencia de cumulonimbus.

TAF: ZKPY 232100Z 2400/2424 32007MPS CAVOK TXM15/2405Z TNM19/2422Z

Observaciones y pronósticos meteorológicos de más de 4000 aeropuertos (mensajes METAR y TAF).

Los puntos amarillos y rojos representan las estaciones disponibles.

Ponga el ratón en el punto deseado para ver el nombre de la estación.

Haga clic para ver las observaciones y los pronósticos meteorológicos.

Para cambiar el mapa : haga clic en los botones verdes con una cruz de color negro para hacer un zoom, en el botón verde con un guión para alejar o en las flechas verdes para mapas adyacentes.


METAR-TAF: